sensor_id;sensor_type;location;lat;lon;timestamp;P1;durP1;ratioP1;P2;durP2;ratioP2
69327;SDS011;56472;52.114;5.492;2022-07-03T00:00:51;11.73;;;4.07;;
69327;SDS011;56472;52.114;5.492;2022-07-03T00:03:18;12.57;;;4.43;;
69327;SDS011;56472;52.114;5.492;2022-07-03T00:05:46;8.80;;;4.40;;
69327;SDS011;56472;52.114;5.492;2022-07-03T00:08:13;13.70;;;4.28;;
69327;SDS011;56472;52.114;5.492;2022-07-03T00:10:41;8.88;;;4.18;;
69327;SDS011;56472;52.114;5.492;2022-07-03T00:13:08;6.25;;;4.60;;
69327;SDS011;56472;52.114;5.492;2022-07-03T00:15:35;6.18;;;4.45;;
69327;SDS011;56472;52.114;5.492;2022-07-03T00:18:03;8.48;;;4.38;;
69327;SDS011;56472;52.114;5.492;2022-07-03T00:20:32;5.47;;;3.90;;
69327;SDS011;56472;52.114;5.492;2022-07-03T00:23:06;7.45;;;4.28;;
69327;SDS011;56472;52.114;5.492;2022-07-03T00:25:35;4.03;;;3.45;;
69327;SDS011;56472;52.114;5.492;2022-07-03T00:28:03;7.32;;;3.40;;
69327;SDS011;56472;52.114;5.492;2022-07-03T00:30:31;6.53;;;3.90;;
69327;SDS011;56472;52.114;5.492;2022-07-03T00:33:03;6.30;;;4.10;;
69327;SDS011;56472;52.114;5.492;2022-07-03T00:35:32;8.35;;;3.65;;
69327;SDS011;56472;52.114;5.492;2022-07-03T00:37:59;6.18;;;3.88;;
69327;SDS011;56472;52.114;5.492;2022-07-03T00:40:27;14.75;;;4.90;;
69327;SDS011;56472;52.114;5.492;2022-07-03T00:42:55;13.35;;;5.13;;
69327;SDS011;56472;52.114;5.492;2022-07-03T00:45:23;8.48;;;4.03;;
69327;SDS011;56472;52.114;5.492;2022-07-03T00:47:52;7.05;;;4.32;;
69327;SDS011;56472;52.114;5.492;2022-07-03T00:50:24;4.65;;;4.00;;
69327;SDS011;56472;52.114;5.492;2022-07-03T00:52:52;5.20;;;3.70;;
69327;SDS011;56472;52.114;5.492;2022-07-03T00:55:19;4.93;;;4.22;;
69327;SDS011;56472;52.114;5.492;2022-07-03T00:57:48;5.53;;;4.13;;
69327;SDS011;56472;52.114;5.492;2022-07-03T01:00:16;7.35;;;4.00;;
69327;SDS011;56472;52.114;5.492;2022-07-03T01:13:06;4.65;;;4.20;;
69327;SDS011;56472;52.114;5.492;2022-07-03T01:18:25;6.20;;;4.50;;
69327;SDS011;56472;52.114;5.492;2022-07-03T01:20:52;4.30;;;4.00;;
69327;SDS011;56472;52.114;5.492;2022-07-03T01:23:24;5.13;;;3.15;;
69327;SDS011;56472;52.114;5.492;2022-07-03T01:25:58;4.53;;;4.13;;
69327;SDS011;56472;52.114;5.492;2022-07-03T01:28:27;3.67;;;3.47;;
69327;SDS011;56472;52.114;5.492;2022-07-03T01:30:55;3.95;;;3.65;;
69327;SDS011;56472;52.114;5.492;2022-07-03T01:33:23;7.78;;;4.50;;
69327;SDS011;56472;52.114;5.492;2022-07-03T01:38:29;8.38;;;4.30;;
69327;SDS011;56472;52.114;5.492;2022-07-03T01:40:56;4.53;;;4.10;;
69327;SDS011;56472;52.114;5.492;2022-07-03T01:43:25;5.93;;;4.38;;
69327;SDS011;56472;52.114;5.492;2022-07-03T01:45:55;8.63;;;4.70;;
69327;SDS011;56472;52.114;5.492;2022-07-03T01:48:23;7.63;;;4.43;;
69327;SDS011;56472;52.114;5.492;2022-07-03T01:50:50;5.97;;;4.72;;
69327;SDS011;56472;52.114;5.492;2022-07-03T01:53:18;5.10;;;4.18;;
69327;SDS011;56472;52.114;5.492;2022-07-03T01:55:46;4.32;;;3.92;;
69327;SDS011;56472;52.114;5.492;2022-07-03T01:58:15;4.82;;;4.43;;
69327;SDS011;56472;52.114;5.492;2022-07-03T02:03:58;4.03;;;3.72;;
69327;SDS011;56472;52.114;5.492;2022-07-03T02:09:03;5.55;;;3.83;;
69327;SDS011;56472;52.114;5.492;2022-07-03T02:11:51;4.15;;;3.83;;
69327;SDS011;56472;52.114;5.492;2022-07-03T02:14:25;5.45;;;4.30;;
69327;SDS011;56472;52.114;5.492;2022-07-03T02:20:08;4.13;;;3.90;;
69327;SDS011;56472;52.114;5.492;2022-07-03T02:22:15;4.60;;;4.22;;
69327;SDS011;56472;52.114;5.492;2022-07-03T02:24:46;5.07;;;4.68;;
69327;SDS011;56472;52.114;5.492;2022-07-03T02:27:19;6.47;;;4.90;;
69327;SDS011;56472;52.114;5.492;2022-07-03T02:29:54;5.28;;;4.35;;
69327;SDS011;56472;52.114;5.492;2022-07-03T02:32:22;4.60;;;4.20;;
69327;SDS011;56472;52.114;5.492;2022-07-03T02:34:54;5.45;;;4.55;;
69327;SDS011;56472;52.114;5.492;2022-07-03T02:37:22;9.75;;;5.30;;
69327;SDS011;56472;52.114;5.492;2022-07-03T02:39:51;9.43;;;4.82;;
69327;SDS011;56472;52.114;5.492;2022-07-03T02:44:53;6.47;;;2.97;;
69327;SDS011;56472;52.114;5.492;2022-07-03T02:47:25;7.38;;;3.83;;
69327;SDS011;56472;52.114;5.492;2022-07-03T02:54:57;11.23;;;5.25;;
69327;SDS011;56472;52.114;5.492;2022-07-03T02:57:26;12.50;;;5.18;;
69327;SDS011;56472;52.114;5.492;2022-07-03T02:59:56;6.05;;;4.43;;
69327;SDS011;56472;52.114;5.492;2022-07-03T03:10:37;5.38;;;4.82;;
69327;SDS011;56472;52.114;5.492;2022-07-03T03:13:06;14.10;;;4.10;;
69327;SDS011;56472;52.114;5.492;2022-07-03T03:15:34;3.60;;;3.40;;
69327;SDS011;56472;52.114;5.492;2022-07-03T03:18:05;6.40;;;3.13;;
69327;SDS011;56472;52.114;5.492;2022-07-03T03:23:19;9.68;;;3.92;;
69327;SDS011;56472;52.114;5.492;2022-07-03T03:25:50;4.85;;;4.45;;
69327;SDS011;56472;52.114;5.492;2022-07-03T03:28:18;12.18;;;4.63;;
69327;SDS011;56472;52.114;5.492;2022-07-03T03:30:45;5.85;;;4.50;;
69327;SDS011;56472;52.114;5.492;2022-07-03T03:33:13;14.07;;;4.40;;
69327;SDS011;56472;52.114;5.492;2022-07-03T03:35:40;7.60;;;4.75;;
69327;SDS011;56472;52.114;5.492;2022-07-03T03:38:08;12.70;;;4.88;;
69327;SDS011;56472;52.114;5.492;2022-07-03T03:40:35;12.52;;;4.95;;
69327;SDS011;56472;52.114;5.492;2022-07-03T03:45:55;6.10;;;4.70;;
69327;SDS011;56472;52.114;5.492;2022-07-03T03:48:22;9.10;;;4.65;;
69327;SDS011;56472;52.114;5.492;2022-07-03T03:50:49;8.02;;;4.53;;
69327;SDS011;56472;52.114;5.492;2022-07-03T03:53:17;7.80;;;4.63;;
69327;SDS011;56472;52.114;5.492;2022-07-03T03:56:01;6.40;;;4.53;;
69327;SDS011;56472;52.114;5.492;2022-07-03T03:58:29;10.55;;;5.25;;
69327;SDS011;56472;52.114;5.492;2022-07-03T04:00:57;11.32;;;5.18;;
69327;SDS011;56472;52.114;5.492;2022-07-03T04:03:25;5.32;;;4.65;;
69327;SDS011;56472;52.114;5.492;2022-07-03T04:05:53;10.35;;;4.40;;
69327;SDS011;56472;52.114;5.492;2022-07-03T04:08:21;6.63;;;4.68;;
69327;SDS011;56472;52.114;5.492;2022-07-03T04:10:48;12.10;;;5.35;;
69327;SDS011;56472;52.114;5.492;2022-07-03T04:13:16;13.85;;;5.05;;
69327;SDS011;56472;52.114;5.492;2022-07-03T04:15:46;9.93;;;4.65;;
69327;SDS011;56472;52.114;5.492;2022-07-03T04:18:13;7.72;;;4.53;;
69327;SDS011;56472;52.114;5.492;2022-07-03T04:20:41;6.50;;;4.50;;
69327;SDS011;56472;52.114;5.492;2022-07-03T04:23:08;7.50;;;4.60;;
69327;SDS011;56472;52.114;5.492;2022-07-03T04:25:35;9.35;;;4.30;;
69327;SDS011;56472;52.114;5.492;2022-07-03T04:28:03;8.18;;;4.00;;
69327;SDS011;56472;52.114;5.492;2022-07-03T04:30:47;8.50;;;4.32;;
69327;SDS011;56472;52.114;5.492;2022-07-03T04:33:15;10.02;;;4.60;;
69327;SDS011;56472;52.114;5.492;2022-07-03T04:35:42;10.73;;;4.53;;
69327;SDS011;56472;52.114;5.492;2022-07-03T04:38:10;6.80;;;4.60;;
69327;SDS011;56472;52.114;5.492;2022-07-03T04:40:37;7.28;;;5.18;;
69327;SDS011;56472;52.114;5.492;2022-07-03T04:43:04;5.07;;;4.47;;
69327;SDS011;56472;52.114;5.492;2022-07-03T04:45:32;4.82;;;4.32;;
69327;SDS011;56472;52.114;5.492;2022-07-03T04:47:59;6.80;;;4.28;;
69327;SDS011;56472;52.114;5.492;2022-07-03T04:50:26;8.10;;;4.20;;
69327;SDS011;56472;52.114;5.492;2022-07-03T04:52:53;9.57;;;4.65;;
69327;SDS011;56472;52.114;5.492;2022-07-03T04:55:21;5.18;;;4.43;;
69327;SDS011;56472;52.114;5.492;2022-07-03T04:57:48;9.75;;;4.70;;
69327;SDS011;56472;52.114;5.492;2022-07-03T05:00:15;8.98;;;5.47;;
69327;SDS011;56472;52.114;5.492;2022-07-03T05:02:43;7.22;;;4.00;;
69327;SDS011;56472;52.114;5.492;2022-07-03T05:05:10;7.05;;;4.20;;
69327;SDS011;56472;52.114;5.492;2022-07-03T05:07:37;8.40;;;4.07;;
69327;SDS011;56472;52.114;5.492;2022-07-03T05:10:05;10.18;;;4.10;;
69327;SDS011;56472;52.114;5.492;2022-07-03T05:12:32;5.85;;;4.30;;
69327;SDS011;56472;52.114;5.492;2022-07-03T05:15:06;7.68;;;4.32;;
69327;SDS011;56472;52.114;5.492;2022-07-03T05:17:33;11.50;;;4.25;;
69327;SDS011;56472;52.114;5.492;2022-07-03T05:20:01;6.63;;;4.03;;
69327;SDS011;56472;52.114;5.492;2022-07-03T05:22:48;8.05;;;3.67;;
69327;SDS011;56472;52.114;5.492;2022-07-03T05:25:15;12.40;;;3.75;;
69327;SDS011;56472;52.114;5.492;2022-07-03T05:27:42;6.90;;;3.50;;
69327;SDS011;56472;52.114;5.492;2022-07-03T05:30:10;8.35;;;3.40;;
69327;SDS011;56472;52.114;5.492;2022-07-03T05:32:38;6.40;;;3.00;;
69327;SDS011;56472;52.114;5.492;2022-07-03T05:35:05;6.35;;;3.40;;
69327;SDS011;56472;52.114;5.492;2022-07-03T05:37:32;6.40;;;3.10;;
69327;SDS011;56472;52.114;5.492;2022-07-03T05:40:00;5.72;;;2.55;;
69327;SDS011;56472;52.114;5.492;2022-07-03T05:42:27;5.03;;;3.08;;
69327;SDS011;56472;52.114;5.492;2022-07-03T05:44:54;12.05;;;2.80;;
69327;SDS011;56472;52.114;5.492;2022-07-03T05:47:22;4.32;;;2.67;;
69327;SDS011;56472;52.114;5.492;2022-07-03T05:49:49;3.97;;;2.78;;
69327;SDS011;56472;52.114;5.492;2022-07-03T05:52:17;4.63;;;2.22;;
69327;SDS011;56472;52.114;5.492;2022-07-03T05:54:44;3.70;;;2.88;;
69327;SDS011;56472;52.114;5.492;2022-07-03T05:57:11;5.07;;;2.05;;
69327;SDS011;56472;52.114;5.492;2022-07-03T05:59:39;5.25;;;2.40;;
69327;SDS011;56472;52.114;5.492;2022-07-03T06:02:06;8.20;;;2.88;;
69327;SDS011;56472;52.114;5.492;2022-07-03T06:04:34;5.50;;;2.17;;
69327;SDS011;56472;52.114;5.492;2022-07-03T06:07:01;11.18;;;2.13;;
69327;SDS011;56472;52.114;5.492;2022-07-03T06:09:28;6.32;;;2.88;;
69327;SDS011;56472;52.114;5.492;2022-07-03T06:11:56;7.00;;;1.92;;
69327;SDS011;56472;52.114;5.492;2022-07-03T06:14:23;8.43;;;1.98;;
69327;SDS011;56472;52.114;5.492;2022-07-03T06:16:50;3.92;;;1.60;;
69327;SDS011;56472;52.114;5.492;2022-07-03T06:19:18;8.15;;;1.60;;
69327;SDS011;56472;52.114;5.492;2022-07-03T06:21:45;8.68;;;1.63;;
69327;SDS011;56472;52.114;5.492;2022-07-03T06:24:12;8.90;;;1.73;;
69327;SDS011;56472;52.114;5.492;2022-07-03T06:26:40;9.57;;;1.40;;
69327;SDS011;56472;52.114;5.492;2022-07-03T06:29:07;5.35;;;1.50;;
69327;SDS011;56472;52.114;5.492;2022-07-03T06:31:34;4.85;;;1.55;;
69327;SDS011;56472;52.114;5.492;2022-07-03T06:34:02;5.72;;;1.38;;
69327;SDS011;56472;52.114;5.492;2022-07-03T06:36:29;6.28;;;1.58;;
69327;SDS011;56472;52.114;5.492;2022-07-03T06:38:56;5.85;;;1.33;;
69327;SDS011;56472;52.114;5.492;2022-07-03T06:41:24;7.03;;;1.35;;
69327;SDS011;56472;52.114;5.492;2022-07-03T06:43:51;5.70;;;1.25;;
69327;SDS011;56472;52.114;5.492;2022-07-03T06:46:18;13.82;;;1.80;;
69327;SDS011;56472;52.114;5.492;2022-07-03T06:48:46;9.07;;;1.50;;
69327;SDS011;56472;52.114;5.492;2022-07-03T06:51:13;3.60;;;1.48;;
69327;SDS011;56472;52.114;5.492;2022-07-03T06:53:42;6.85;;;1.77;;
69327;SDS011;56472;52.114;5.492;2022-07-03T06:56:09;6.82;;;1.50;;
69327;SDS011;56472;52.114;5.492;2022-07-03T06:58:37;9.18;;;1.20;;
69327;SDS011;56472;52.114;5.492;2022-07-03T07:01:04;7.38;;;1.45;;
69327;SDS011;56472;52.114;5.492;2022-07-03T07:03:31;7.68;;;1.60;;
69327;SDS011;56472;52.114;5.492;2022-07-03T07:05:59;2.78;;;1.27;;
69327;SDS011;56472;52.114;5.492;2022-07-03T07:08:26;12.82;;;1.58;;
69327;SDS011;56472;52.114;5.492;2022-07-03T07:10:54;6.10;;;1.52;;
69327;SDS011;56472;52.114;5.492;2022-07-03T07:13:21;3.67;;;1.55;;
69327;SDS011;56472;52.114;5.492;2022-07-03T07:15:48;9.52;;;1.48;;
69327;SDS011;56472;52.114;5.492;2022-07-03T07:18:15;8.25;;;1.50;;
69327;SDS011;56472;52.114;5.492;2022-07-03T07:20:43;6.00;;;1.55;;
69327;SDS011;56472;52.114;5.492;2022-07-03T07:23:10;4.15;;;1.20;;
69327;SDS011;56472;52.114;5.492;2022-07-03T07:25:37;3.95;;;1.38;;
69327;SDS011;56472;52.114;5.492;2022-07-03T07:28:09;7.97;;;1.52;;
69327;SDS011;56472;52.114;5.492;2022-07-03T07:30:36;5.15;;;1.30;;
69327;SDS011;56472;52.114;5.492;2022-07-03T07:33:06;10.07;;;1.30;;
69327;SDS011;56472;52.114;5.492;2022-07-03T07:35:33;3.05;;;1.20;;
69327;SDS011;56472;52.114;5.492;2022-07-03T07:38:01;2.65;;;1.48;;
69327;SDS011;56472;52.114;5.492;2022-07-03T07:40:34;5.35;;;1.15;;
69327;SDS011;56472;52.114;5.492;2022-07-03T07:43:01;4.28;;;1.20;;
69327;SDS011;56472;52.114;5.492;2022-07-03T07:45:29;5.40;;;1.05;;
69327;SDS011;56472;52.114;5.492;2022-07-03T07:47:56;2.00;;;1.05;;
69327;SDS011;56472;52.114;5.492;2022-07-03T07:50:23;5.82;;;1.48;;
69327;SDS011;56472;52.114;5.492;2022-07-03T07:52:51;1.67;;;0.80;;
69327;SDS011;56472;52.114;5.492;2022-07-03T07:55:18;6.47;;;1.50;;
69327;SDS011;56472;52.114;5.492;2022-07-03T07:57:47;8.70;;;1.25;;
69327;SDS011;56472;52.114;5.492;2022-07-03T08:00:15;4.70;;;1.15;;
69327;SDS011;56472;52.114;5.492;2022-07-03T08:02:43;3.30;;;1.00;;
69327;SDS011;56472;52.114;5.492;2022-07-03T08:05:30;4.82;;;1.05;;
69327;SDS011;56472;52.114;5.492;2022-07-03T08:10:34;4.40;;;1.30;;
69327;SDS011;56472;52.114;5.492;2022-07-03T08:13:03;3.60;;;1.08;;
69327;SDS011;56472;52.114;5.492;2022-07-03T08:15:30;3.47;;;1.05;;
69327;SDS011;56472;52.114;5.492;2022-07-03T08:17:59;2.53;;;1.02;;
69327;SDS011;56472;52.114;5.492;2022-07-03T08:20:26;3.40;;;1.10;;
69327;SDS011;56472;52.114;5.492;2022-07-03T08:22:54;4.28;;;1.08;;
69327;SDS011;56472;52.114;5.492;2022-07-03T08:25:21;1.48;;;0.93;;
69327;SDS011;56472;52.114;5.492;2022-07-03T08:27:49;2.00;;;1.10;;
69327;SDS011;56472;52.114;5.492;2022-07-03T08:30:16;2.60;;;1.20;;
69327;SDS011;56472;52.114;5.492;2022-07-03T08:32:44;3.20;;;1.10;;
69327;SDS011;56472;52.114;5.492;2022-07-03T08:35:12;2.75;;;0.88;;
69327;SDS011;56472;52.114;5.492;2022-07-03T08:37:39;3.47;;;1.33;;
69327;SDS011;56472;52.114;5.492;2022-07-03T08:40:07;3.53;;;1.17;;
69327;SDS011;56472;52.114;5.492;2022-07-03T08:42:35;5.90;;;1.48;;
69327;SDS011;56472;52.114;5.492;2022-07-03T08:45:05;6.63;;;1.40;;
69327;SDS011;56472;52.114;5.492;2022-07-03T08:47:33;10.23;;;1.67;;
69327;SDS011;56472;52.114;5.492;2022-07-03T08:50:00;2.15;;;1.08;;
69327;SDS011;56472;52.114;5.492;2022-07-03T08:52:28;9.30;;;1.60;;
69327;SDS011;56472;52.114;5.492;2022-07-03T08:54:56;7.50;;;2.10;;
69327;SDS011;56472;52.114;5.492;2022-07-03T08:57:23;6.07;;;1.55;;
69327;SDS011;56472;52.114;5.492;2022-07-03T08:59:52;4.68;;;1.10;;
69327;SDS011;56472;52.114;5.492;2022-07-03T09:02:19;6.25;;;1.40;;
69327;SDS011;56472;52.114;5.492;2022-07-03T09:04:48;6.15;;;1.48;;
69327;SDS011;56472;52.114;5.492;2022-07-03T09:07:17;4.28;;;1.42;;
69327;SDS011;56472;52.114;5.492;2022-07-03T09:09:45;5.07;;;1.33;;
69327;SDS011;56472;52.114;5.492;2022-07-03T09:12:13;5.82;;;1.35;;
69327;SDS011;56472;52.114;5.492;2022-07-03T09:14:41;5.15;;;1.38;;
69327;SDS011;56472;52.114;5.492;2022-07-03T09:17:09;4.57;;;1.10;;
69327;SDS011;56472;52.114;5.492;2022-07-03T09:22:16;5.82;;;1.83;;
69327;SDS011;56472;52.114;5.492;2022-07-03T09:24:47;6.32;;;1.50;;
69327;SDS011;56472;52.114;5.492;2022-07-03T09:27:20;3.70;;;1.00;;
69327;SDS011;56472;52.114;5.492;2022-07-03T09:29:57;2.58;;;0.90;;
69327;SDS011;56472;52.114;5.492;2022-07-03T09:32:27;4.22;;;1.20;;
69327;SDS011;56472;52.114;5.492;2022-07-03T09:37:52;4.50;;;1.25;;
69327;SDS011;56472;52.114;5.492;2022-07-03T09:40:19;3.38;;;0.80;;
69327;SDS011;56472;52.114;5.492;2022-07-03T09:43:00;6.10;;;1.27;;
69327;SDS011;56472;52.114;5.492;2022-07-03T09:45:48;2.88;;;0.95;;
69327;SDS011;56472;52.114;5.492;2022-07-03T09:48:25;5.40;;;1.15;;
69327;SDS011;56472;52.114;5.492;2022-07-03T09:53:45;3.83;;;1.10;;
69327;SDS011;56472;52.114;5.492;2022-07-03T09:56:22;4.60;;;0.82;;
69327;SDS011;56472;52.114;5.492;2022-07-03T10:01:26;2.72;;;0.98;;
69327;SDS011;56472;52.114;5.492;2022-07-03T10:03:53;3.47;;;0.90;;
69327;SDS011;56472;52.114;5.492;2022-07-03T10:06:21;3.13;;;0.80;;
69327;SDS011;56472;52.114;5.492;2022-07-03T10:08:49;1.60;;;0.73;;
69327;SDS011;56472;52.114;5.492;2022-07-03T10:11:17;2.60;;;0.98;;
69327;SDS011;56472;52.114;5.492;2022-07-03T10:13:44;4.68;;;1.30;;
69327;SDS011;56472;52.114;5.492;2022-07-03T10:16:11;8.55;;;1.13;;
69327;SDS011;56472;52.114;5.492;2022-07-03T10:18:39;5.00;;;1.50;;
69327;SDS011;56472;52.114;5.492;2022-07-03T10:21:15;4.28;;;1.10;;
69327;SDS011;56472;52.114;5.492;2022-07-03T10:23:42;2.85;;;0.80;;
69327;SDS011;56472;52.114;5.492;2022-07-03T10:26:11;4.55;;;0.82;;
69327;SDS011;56472;52.114;5.492;2022-07-03T10:28:39;2.63;;;0.95;;
69327;SDS011;56472;52.114;5.492;2022-07-03T10:31:06;3.38;;;0.50;;
69327;SDS011;56472;52.114;5.492;2022-07-03T10:33:34;5.45;;;0.90;;
69327;SDS011;56472;52.114;5.492;2022-07-03T10:36:03;4.20;;;1.02;;
69327;SDS011;56472;52.114;5.492;2022-07-03T10:41:23;2.13;;;0.57;;
69327;SDS011;56472;52.114;5.492;2022-07-03T10:44:12;1.27;;;0.85;;
69327;SDS011;56472;52.114;5.492;2022-07-03T10:46:59;2.35;;;1.10;;
69327;SDS011;56472;52.114;5.492;2022-07-03T10:49:33;3.75;;;1.13;;
69327;SDS011;56472;52.114;5.492;2022-07-03T10:52:01;2.40;;;0.80;;
69327;SDS011;56472;52.114;5.492;2022-07-03T11:02:50;4.43;;;1.00;;
69327;SDS011;56472;52.114;5.492;2022-07-03T11:07:27;3.47;;;0.85;;
69327;SDS011;56472;52.114;5.492;2022-07-03T11:25:44;2.65;;;0.80;;
69327;SDS011;56472;52.114;5.492;2022-07-03T11:41:27;7.20;;;1.65;;
69327;SDS011;56472;52.114;5.492;2022-07-03T11:43:56;6.05;;;1.17;;
69327;SDS011;56472;52.114;5.492;2022-07-03T11:46:24;7.70;;;1.30;;
69327;SDS011;56472;52.114;5.492;2022-07-03T11:49:11;2.70;;;1.80;;
69327;SDS011;56472;52.114;5.492;2022-07-03T11:51:40;2.03;;;1.17;;
69327;SDS011;56472;52.114;5.492;2022-07-03T11:54:08;2.33;;;1.40;;
69327;SDS011;56472;52.114;5.492;2022-07-03T11:56:36;3.95;;;1.45;;
69327;SDS011;56472;52.114;5.492;2022-07-03T11:59:05;1.88;;;1.40;;
69327;SDS011;56472;52.114;5.492;2022-07-03T12:01:33;3.42;;;1.48;;
69327;SDS011;56472;52.114;5.492;2022-07-03T12:04:08;4.38;;;2.05;;
69327;SDS011;56472;52.114;5.492;2022-07-03T12:06:43;2.47;;;1.20;;
69327;SDS011;56472;52.114;5.492;2022-07-03T12:09:30;3.15;;;1.45;;
69327;SDS011;56472;52.114;5.492;2022-07-03T12:14:35;3.28;;;1.40;;
69327;SDS011;56472;52.114;5.492;2022-07-03T12:17:03;3.45;;;1.02;;
69327;SDS011;56472;52.114;5.492;2022-07-03T12:19:31;4.53;;;1.33;;
69327;SDS011;56472;52.114;5.492;2022-07-03T12:21:58;2.65;;;1.10;;
69327;SDS011;56472;52.114;5.492;2022-07-03T12:24:25;2.72;;;1.30;;
69327;SDS011;56472;52.114;5.492;2022-07-03T12:26:53;1.23;;;1.13;;
69327;SDS011;56472;52.114;5.492;2022-07-03T12:29:20;3.10;;;1.33;;
69327;SDS011;56472;52.114;5.492;2022-07-03T12:31:48;5.25;;;1.40;;
69327;SDS011;56472;52.114;5.492;2022-07-03T12:34:16;2.15;;;0.93;;
69327;SDS011;56472;52.114;5.492;2022-07-03T12:36:59;6.35;;;1.40;;
69327;SDS011;56472;52.114;5.492;2022-07-03T12:42:27;4.95;;;1.17;;
69327;SDS011;56472;52.114;5.492;2022-07-03T12:47:23;3.00;;;1.00;;
69327;SDS011;56472;52.114;5.492;2022-07-03T12:50:00;5.88;;;1.50;;
69327;SDS011;56472;52.114;5.492;2022-07-03T12:52:28;4.05;;;1.23;;
69327;SDS011;56472;52.114;5.492;2022-07-03T12:54:56;9.75;;;1.95;;
69327;SDS011;56472;52.114;5.492;2022-07-03T12:57:24;2.35;;;1.20;;
69327;SDS011;56472;52.114;5.492;2022-07-03T13:00:14;2.00;;;1.23;;
69327;SDS011;56472;52.114;5.492;2022-07-03T13:02:44;2.45;;;1.50;;
69327;SDS011;56472;52.114;5.492;2022-07-03T13:05:19;1.52;;;1.17;;
69327;SDS011;56472;52.114;5.492;2022-07-03T13:07:47;2.65;;;1.48;;
69327;SDS011;56472;52.114;5.492;2022-07-03T13:10:16;3.97;;;1.60;;
69327;SDS011;56472;52.114;5.492;2022-07-03T13:12:51;3.13;;;1.35;;
69327;SDS011;56472;52.114;5.492;2022-07-03T13:15:19;2.92;;;1.40;;
69327;SDS011;56472;52.114;5.492;2022-07-03T13:20:16;4.38;;;1.65;;
69327;SDS011;56472;52.114;5.492;2022-07-03T13:22:44;6.15;;;1.23;;
69327;SDS011;56472;52.114;5.492;2022-07-03T13:25:11;5.32;;;1.13;;
69327;SDS011;56472;52.114;5.492;2022-07-03T13:27:38;2.10;;;0.90;;
69327;SDS011;56472;52.114;5.492;2022-07-03T13:30:06;1.10;;;1.00;;
69327;SDS011;56472;52.114;5.492;2022-07-03T13:32:33;2.58;;;1.63;;
69327;SDS011;56472;52.114;5.492;2022-07-03T13:35:00;7.85;;;1.30;;
69327;SDS011;56472;52.114;5.492;2022-07-03T13:37:28;3.50;;;1.02;;
69327;SDS011;56472;52.114;5.492;2022-07-03T13:39:55;4.35;;;1.30;;
69327;SDS011;56472;52.114;5.492;2022-07-03T13:42:22;2.10;;;1.40;;
69327;SDS011;56472;52.114;5.492;2022-07-03T13:44:50;3.10;;;1.52;;
69327;SDS011;56472;52.114;5.492;2022-07-03T13:47:17;5.18;;;1.25;;
69327;SDS011;56472;52.114;5.492;2022-07-03T13:49:44;4.93;;;1.50;;
69327;SDS011;56472;52.114;5.492;2022-07-03T13:52:12;3.58;;;1.40;;
69327;SDS011;56472;52.114;5.492;2022-07-03T13:54:39;5.75;;;1.70;;
69327;SDS011;56472;52.114;5.492;2022-07-03T13:57:06;2.50;;;1.45;;
69327;SDS011;56472;52.114;5.492;2022-07-03T13:59:34;5.07;;;1.75;;
69327;SDS011;56472;52.114;5.492;2022-07-03T14:02:01;2.33;;;1.50;;
69327;SDS011;56472;52.114;5.492;2022-07-03T14:04:28;5.50;;;1.60;;
69327;SDS011;56472;52.114;5.492;2022-07-03T14:06:56;3.03;;;1.55;;
69327;SDS011;56472;52.114;5.492;2022-07-03T14:09:24;2.60;;;1.50;;
69327;SDS011;56472;52.114;5.492;2022-07-03T14:11:51;1.10;;;1.00;;
69327;SDS011;56472;52.114;5.492;2022-07-03T14:14:19;6.38;;;1.63;;
69327;SDS011;56472;52.114;5.492;2022-07-03T14:16:46;3.58;;;1.55;;
69327;SDS011;56472;52.114;5.492;2022-07-03T14:19:17;2.65;;;1.33;;
69327;SDS011;56472;52.114;5.492;2022-07-03T14:21:44;2.88;;;0.98;;
69327;SDS011;56472;52.114;5.492;2022-07-03T14:24:11;4.82;;;1.00;;
69327;SDS011;56472;52.114;5.492;2022-07-03T14:26:39;1.52;;;1.20;;
69327;SDS011;56472;52.114;5.492;2022-07-03T14:29:25;4.38;;;1.27;;
69327;SDS011;56472;52.114;5.492;2022-07-03T14:32:10;4.60;;;1.63;;
69327;SDS011;56472;52.114;5.492;2022-07-03T14:34:57;2.58;;;1.13;;
69327;SDS011;56472;52.114;5.492;2022-07-03T14:37:24;2.15;;;1.20;;
69327;SDS011;56472;52.114;5.492;2022-07-03T14:39:51;4.25;;;1.60;;
69327;SDS011;56472;52.114;5.492;2022-07-03T14:42:19;2.50;;;1.00;;
69327;SDS011;56472;52.114;5.492;2022-07-03T14:44:46;3.78;;;1.50;;
69327;SDS011;56472;52.114;5.492;2022-07-03T14:47:14;5.88;;;1.42;;
69327;SDS011;56472;52.114;5.492;2022-07-03T14:49:42;3.33;;;1.30;;
69327;SDS011;56472;52.114;5.492;2022-07-03T14:52:09;4.80;;;1.42;;
69327;SDS011;56472;52.114;5.492;2022-07-03T14:54:37;4.03;;;1.20;;
69327;SDS011;56472;52.114;5.492;2022-07-03T14:57:14;6.53;;;1.40;;
69327;SDS011;56472;52.114;5.492;2022-07-03T15:02:22;5.38;;;1.10;;
69327;SDS011;56472;52.114;5.492;2022-07-03T15:07:18;4.40;;;1.25;;
69327;SDS011;56472;52.114;5.492;2022-07-03T15:09:46;4.47;;;1.33;;
69327;SDS011;56472;52.114;5.492;2022-07-03T15:12:17;2.85;;;1.17;;
69327;SDS011;56472;52.114;5.492;2022-07-03T15:14:55;3.85;;;1.27;;
69327;SDS011;56472;52.114;5.492;2022-07-03T15:17:24;3.80;;;1.30;;
69327;SDS011;56472;52.114;5.492;2022-07-03T15:19:52;2.28;;;1.00;;
69327;SDS011;56472;52.114;5.492;2022-07-03T15:22:20;3.25;;;2.05;;
69327;SDS011;56472;52.114;5.492;2022-07-03T15:24:48;4.35;;;1.30;;
69327;SDS011;56472;52.114;5.492;2022-07-03T15:27:20;3.15;;;1.30;;
69327;SDS011;56472;52.114;5.492;2022-07-03T15:29:48;7.03;;;1.60;;
69327;SDS011;56472;52.114;5.492;2022-07-03T15:32:16;2.10;;;1.25;;
69327;SDS011;56472;52.114;5.492;2022-07-03T15:34:44;2.85;;;1.50;;
69327;SDS011;56472;52.114;5.492;2022-07-03T15:37:20;3.05;;;1.75;;
69327;SDS011;56472;52.114;5.492;2022-07-03T15:39:58;1.33;;;1.10;;
69327;SDS011;56472;52.114;5.492;2022-07-03T15:50:21;3.67;;;1.58;;
69327;SDS011;56472;52.114;5.492;2022-07-03T15:52:53;3.05;;;1.10;;
69327;SDS011;56472;52.114;5.492;2022-07-03T15:55:20;1.65;;;1.30;;
69327;SDS011;56472;52.114;5.492;2022-07-03T15:58:03;2.45;;;1.30;;
69327;SDS011;56472;52.114;5.492;2022-07-03T16:00:34;1.75;;;1.10;;
69327;SDS011;56472;52.114;5.492;2022-07-03T16:05:33;2.45;;;1.20;;
69327;SDS011;56472;52.114;5.492;2022-07-03T16:08:02;4.53;;;1.30;;
69327;SDS011;56472;52.114;5.492;2022-07-03T16:10:32;1.52;;;1.05;;
69327;SDS011;56472;52.114;5.492;2022-07-03T16:13:00;3.35;;;1.10;;
69327;SDS011;56472;52.114;5.492;2022-07-03T16:15:31;5.30;;;1.10;;
69327;SDS011;56472;52.114;5.492;2022-07-03T16:17:58;2.03;;;0.90;;
69327;SDS011;56472;52.114;5.492;2022-07-03T16:20:26;3.22;;;1.25;;
69327;SDS011;56472;52.114;5.492;2022-07-03T16:22:54;2.72;;;1.00;;
69327;SDS011;56472;52.114;5.492;2022-07-03T16:25:23;4.97;;;1.70;;
69327;SDS011;56472;52.114;5.492;2022-07-03T16:27:51;4.22;;;1.00;;
69327;SDS011;56472;52.114;5.492;2022-07-03T16:30:18;1.60;;;0.90;;
69327;SDS011;56472;52.114;5.492;2022-07-03T16:32:46;2.33;;;0.70;;
69327;SDS011;56472;52.114;5.492;2022-07-03T16:35:19;2.97;;;0.80;;
69327;SDS011;56472;52.114;5.492;2022-07-03T16:37:55;2.10;;;0.80;;
69327;SDS011;56472;52.114;5.492;2022-07-03T16:40:24;5.45;;;0.98;;
69327;SDS011;56472;52.114;5.492;2022-07-03T16:42:52;3.67;;;1.10;;
69327;SDS011;56472;52.114;5.492;2022-07-03T16:45:20;1.63;;;0.93;;
69327;SDS011;56472;52.114;5.492;2022-07-03T16:47:49;3.85;;;1.33;;
69327;SDS011;56472;52.114;5.492;2022-07-03T16:50:20;6.43;;;1.15;;
69327;SDS011;56472;52.114;5.492;2022-07-03T16:52:52;7.40;;;1.13;;
69327;SDS011;56472;52.114;5.492;2022-07-03T16:55:20;3.38;;;1.20;;
69327;SDS011;56472;52.114;5.492;2022-07-03T16:57:49;6.85;;;1.60;;
69327;SDS011;56472;52.114;5.492;2022-07-03T17:00:18;4.85;;;1.20;;
69327;SDS011;56472;52.114;5.492;2022-07-03T17:02:46;1.00;;;0.90;;
69327;SDS011;56472;52.114;5.492;2022-07-03T17:05:16;3.25;;;0.90;;